Time;durP1;ratioP1;P1;durP2;ratioP2;P2;SDS_P1;SDS_P2;PMS_P1;PMS_P2;Temp;Humidity;BMP_temperature;BMP_pressure;BME280_temperature;BME280_humidity;BME280_pressure;Samples;Min_cycle;Max_cycle;Signal;HPM_P1;HPM_P2
2023/10/01 00:01:58;;;;;;;9.60;2.90;;;;;;;;;;104020;1289;545160;-77
2023/10/01 00:05:41;;;;;;;8.60;2.70;;;;;;;;;;103581;1292;546308;-77
2023/10/01 00:20:04;;;;;;;8.30;2.80;;;;;;;;;;104427;1286;553849;-83
2023/10/01 00:23:02;;;;;;;8.60;2.80;;;;;;;;;;103590;1290;547859;-77
2023/10/01 00:26:30;;;;;;;8.20;2.60;;;;;;;;;;103592;1296;545043;-79
2023/10/01 00:30:14;;;;;;;10.00;2.80;;;;;;;;;;103405;1293;548087;-79
2023/10/01 00:33:51;;;;;;;14.40;3.80;;;;;;;;;;103417;1292;547916;-77
2023/10/01 00:37:28;;;;;;;9.60;3.00;;;;;;;;;;103574;1292;547954;-77
2023/10/01 00:41:09;;;;;;;11.10;3.00;;;;;;;;;;103624;1289;548108;-78
2023/10/01 00:44:45;;;;;;;9.20;2.80;;;;;;;;;;103568;1291;548421;-79
2023/10/01 00:48:22;;;;;;;11.00;3.00;;;;;;;;;;103323;1295;548093;-77
2023/10/01 00:51:53;;;;;;;10.30;3.10;;;;;;;;;;104014;1293;545522;-80
2023/10/01 00:55:37;;;;;;;10.60;3.00;;;;;;;;;;103697;1291;547970;-77
2023/10/01 00:59:14;;;;;;;8.50;2.60;;;;;;;;;;103535;1292;547973;-77
2023/10/01 01:02:57;;;;;;;10.90;3.20;;;;;;;;;;103807;1291;544989;-77
2023/10/01 01:06:36;;;;;;;8.80;2.40;;;;;;;;;;103661;1292;547982;-78
2023/10/01 01:10:06;;;;;;;9.30;2.50;;;;;;;;;;103593;1292;547961;-78
2023/10/01 01:13:37;;;;;;;9.90;2.80;;;;;;;;;;103744;1292;544989;-78
2023/10/01 01:17:14;;;;;;;9.20;2.60;;;;;;;;;;103549;1296;545261;-77
2023/10/01 01:21:05;;;;;;;9.10;2.50;;;;;;;;;;103734;1288;545981;-77
2023/10/01 01:24:36;;;;;;;8.70;2.50;;;;;;;;;;103661;1289;548160;-78
2023/10/01 01:28:14;;;;;;;10.20;2.50;;;;;;;;;;103655;1294;548108;-77
2023/10/01 01:32:06;;;;;;;10.50;2.60;;;;;;;;;;104053;1285;547925;-78
2023/10/01 01:35:28;;;;;;;11.20;2.80;;;;;;;;;;103589;1292;547779;-77
2023/10/01 01:39:13;;;;;;;8.30;2.40;;;;;;;;;;103360;1298;547860;-77
2023/10/01 01:42:44;;;;;;;10.70;2.60;;;;;;;;;;103554;1291;547977;-77
2023/10/01 01:46:14;;;;;;;8.70;2.40;;;;;;;;;;103752;1290;545641;-77
2023/10/01 01:50:07;;;;;;;9.90;2.80;;;;;;;;;;103547;1295;548040;-78
2023/10/01 01:53:41;;;;;;;10.70;2.50;;;;;;;;;;103706;1291;545959;-76
2023/10/01 01:57:13;;;;;;;9.80;2.50;;;;;;;;;;103648;1292;548414;-78
2023/10/01 02:11:14;;;;;;;10.20;2.60;;;;;;;;;;104760;1285;551881;-77
2023/10/01 02:14:06;;;;;;;9.10;2.20;;;;;;;;;;104011;1295;545595;-77
2023/10/01 02:17:49;;;;;;;11.80;2.60;;;;;;;;;;103632;1296;548070;-76
2023/10/01 02:25:00;;;;;;;9.60;2.80;;;;;;;;;;103844;1290;545682;-77
2023/10/01 02:28:38;;;;;;;9.00;2.50;;;;;;;;;;103842;1289;547953;-77
2023/10/01 02:32:19;;;;;;;10.40;2.60;;;;;;;;;;103752;1289;548008;-79
2023/10/01 02:35:58;;;;;;;8.00;2.60;;;;;;;;;;103597;1295;547949;-77
2023/10/01 02:39:37;;;;;;;8.70;2.40;;;;;;;;;;103657;1289;547826;-76
2023/10/01 02:43:14;;;;;;;10.70;2.40;;;;;;;;;;103333;1298;548064;-77
2023/10/01 02:46:50;;;;;;;7.90;2.30;;;;;;;;;;103517;1292;546000;-77
2023/10/01 02:50:26;;;;;;;8.60;2.10;;;;;;;;;;103553;1292;547831;-77
2023/10/01 02:54:05;;;;;;;6.50;2.00;;;;;;;;;;103947;1287;548148;-77
2023/10/01 02:57:41;;;;;;;11.30;2.70;;;;;;;;;;103367;1294;548134;-77
2023/10/01 03:01:21;;;;;;;8.00;2.40;;;;;;;;;;103491;1295;547941;-77
2023/10/01 03:04:51;;;;;;;8.50;2.50;;;;;;;;;;103518;1293;544925;-77
2023/10/01 03:12:35;;;;;;;8.60;2.40;;;;;;;;;;103536;1291;547978;-79
2023/10/01 03:16:39;;;;;;;9.90;2.40;;;;;;;;;;103376;1295;547824;-77
2023/10/01 03:19:26;;;;;;;8.90;2.80;;;;;;;;;;103689;1291;545279;-77
2023/10/01 03:23:01;;;;;;;8.60;2.40;;;;;;;;;;103748;1289;545085;-78
2023/10/01 03:26:44;;;;;;;10.20;2.40;;;;;;;;;;103643;1294;547797;-81
2023/10/01 03:30:21;;;;;;;11.00;3.00;;;;;;;;;;103726;1289;545048;-77
2023/10/01 03:33:58;;;;;;;8.90;2.40;;;;;;;;;;103695;1294;548076;-79
2023/10/01 03:37:40;;;;;;;8.40;2.30;;;;;;;;;;103509;1291;549404;-79
2023/10/01 03:41:20;;;;;;;8.20;2.20;;;;;;;;;;103563;1292;547812;-77
2023/10/01 03:58:43;;;;;;;9.70;2.10;;;;;;;;;;104690;1284;549794;-77
2023/10/01 04:01:58;;;;;;;8.50;2.40;;;;;;;;;;103744;1289;544973;-77
2023/10/01 04:05:22;;;;;;;8.50;2.30;;;;;;;;;;103462;1292;548131;-78
2023/10/01 04:08:55;;;;;;;8.10;1.90;;;;;;;;;;103500;1297;545458;-76
2023/10/01 04:12:33;;;;;;;8.00;2.20;;;;;;;;;;103617;1288;548177;-75
2023/10/01 04:16:15;;;;;;;8.10;2.00;;;;;;;;;;103645;1288;548033;-78
2023/10/01 04:19:49;;;;;;;16.20;2.30;;;;;;;;;;103731;1291;544972;-77
2023/10/01 04:23:29;;;;;;;10.20;2.10;;;;;;;;;;103647;1291;547969;-77
2023/10/01 04:27:18;;;;;;;8.30;1.80;;;;;;;;;;103628;1289;548023;-77
2023/10/01 04:30:44;;;;;;;8.90;1.90;;;;;;;;;;103646;1292;548378;-77
2023/10/01 04:34:12;;;;;;;8.60;2.10;;;;;;;;;;103757;1292;545549;-77
2023/10/01 04:37:55;;;;;;;8.90;2.20;;;;;;;;;;103538;1292;547942;-77
2023/10/01 04:41:34;;;;;;;9.10;2.20;;;;;;;;;;103616;1292;547988;-82
2023/10/01 04:45:22;;;;;;;8.80;1.90;;;;;;;;;;103755;1288;548546;-77
2023/10/01 04:48:42;;;;;;;9.30;2.40;;;;;;;;;;104040;1291;545732;-78
2023/10/01 04:52:24;;;;;;;7.50;2.10;;;;;;;;;;103927;1289;545606;-80
2023/10/01 04:56:00;;;;;;;9.40;2.30;;;;;;;;;;103774;1292;545010;-79
2023/10/01 05:10:08;;;;;;;8.20;2.20;;;;;;;;;;104611;1284;554271;-81
2023/10/01 05:23:25;;;;;;;7.10;2.30;;;;;;;;;;104496;1285;554171;-79
2023/10/01 05:26:20;;;;;;;7.10;2.10;;;;;;;;;;103936;1289;547762;-81
2023/10/01 05:40:29;;;;;;;7.40;2.00;;;;;;;;;;104475;1285;553496;-77
2023/10/01 05:43:27;;;;;;;9.40;2.20;;;;;;;;;;103617;1294;547828;-77
2023/10/01 05:46:54;;;;;;;9.40;2.10;;;;;;;;;;103480;1306;545000;-78
2023/10/01 05:50:31;;;;;;;9.90;2.20;;;;;;;;;;103739;1295;546162;-77
2023/10/01 05:54:21;;;;;;;8.90;1.60;;;;;;;;;;103860;1289;548115;-78
2023/10/01 05:57:52;;;;;;;7.30;1.90;;;;;;;;;;104116;1289;547860;-78
2023/10/01 06:01:33;;;;;;;8.30;2.00;;;;;;;;;;103665;1291;547868;-77
2023/10/01 06:05:33;;;;;;;9.70;2.30;;;;;;;;;;103884;1291;548193;-77
2023/10/01 06:08:49;;;;;;;9.30;2.40;;;;;;;;;;103656;1289;546572;-77
2023/10/01 06:12:21;;;;;;;8.50;2.10;;;;;;;;;;103357;1294;548031;-78
2023/10/01 06:16:11;;;;;;;9.40;2.40;;;;;;;;;;103671;1289;547796;-78
2023/10/01 06:19:40;;;;;;;7.30;2.30;;;;;;;;;;103534;1294;548153;-77
2023/10/01 06:23:14;;;;;;;10.50;2.50;;;;;;;;;;103441;1291;548243;-77
2023/10/01 06:37:14;;;;;;;9.80;2.20;;;;;;;;;;104156;1283;553661;-77
2023/10/01 06:40:29;;;;;;;8.60;2.30;;;;;;;;;;103509;1294;545979;-79
2023/10/01 06:43:50;;;;;;;11.60;2.50;;;;;;;;;;103588;1295;547904;-79
2023/10/01 06:47:28;;;;;;;7.60;2.30;;;;;;;;;;103690;1295;545435;-77
2023/10/01 07:01:35;;;;;;;8.80;2.50;;;;;;;;;;104184;1286;553753;-78
2023/10/01 07:04:27;;;;;;;9.80;2.70;;;;;;;;;;103298;1294;547940;-77
2023/10/01 07:08:03;;;;;;;10.80;3.00;;;;;;;;;;103302;1298;548077;-77
2023/10/01 07:11:41;;;;;;;9.70;2.70;;;;;;;;;;103580;1292;547868;-77
2023/10/01 07:15:18;;;;;;;10.40;3.60;;;;;;;;;;103606;1289;547800;-79
2023/10/01 07:18:57;;;;;;;10.40;3.00;;;;;;;;;;103598;1295;546272;-77
2023/10/01 07:22:38;;;;;;;8.20;2.50;;;;;;;;;;103613;1292;547985;-77
2023/10/01 07:26:12;;;;;;;8.10;2.10;;;;;;;;;;104017;1287;548098;-77
2023/10/01 07:29:53;;;;;;;8.30;2.30;;;;;;;;;;103594;1292;547903;-77
2023/10/01 07:33:22;;;;;;;8.00;2.20;;;;;;;;;;103644;1289;545453;-77
2023/10/01 07:37:07;;;;;;;9.50;2.40;;;;;;;;;;103474;1293;547958;-78
2023/10/01 07:51:22;;;;;;;8.50;2.20;;;;;;;;;;104607;1283;551802;-75
2023/10/01 07:54:11;;;;;;;13.40;2.30;;;;;;;;;;103860;1291;548294;-77
2023/10/01 07:57:49;;;;;;;7.90;1.90;;;;;;;;;;103559;1292;547914;-77
2023/10/01 08:12:05;;;;;;;8.90;2.00;;;;;;;;;;104526;1285;551151;-76
2023/10/01 08:18:42;;;;;;;9.80;2.30;;;;;;;;;;103790;1289;548036;-76
2023/10/01 08:22:15;;;;;;;7.50;2.00;;;;;;;;;;103572;1295;547987;-78
2023/10/01 08:36:36;;;;;;;9.90;2.20;;;;;;;;;;104538;1285;553657;-77
2023/10/01 08:42:59;;;;;;;8.50;2.30;;;;;;;;;;103696;1293;545096;-76
2023/10/01 08:46:39;;;;;;;9.70;2.30;;;;;;;;;;103693;1289;545262;-76
2023/10/01 08:50:26;;;;;;;9.00;2.50;;;;;;;;;;103699;1289;544726;-76
2023/10/01 08:53:53;;;;;;;7.00;2.10;;;;;;;;;;104240;1289;545030;-78
2023/10/01 08:57:37;;;;;;;11.00;2.60;;;;;;;;;;103634;1293;545817;-77
2023/10/01 09:01:15;;;;;;;11.50;3.00;;;;;;;;;;103554;1292;547826;-76
2023/10/01 09:04:49;;;;;;;8.50;2.30;;;;;;;;;;103565;1292;547803;-75
2023/10/01 09:08:31;;;;;;;7.30;2.10;;;;;;;;;;103273;1295;547812;-80
2023/10/01 09:12:19;;;;;;;7.50;2.20;;;;;;;;;;103478;1297;548548;-76
2023/10/01 09:15:43;;;;;;;8.00;2.40;;;;;;;;;;103523;1292;548008;-82
2023/10/01 09:19:30;;;;;;;6.90;2.10;;;;;;;;;;103552;1292;548643;-77
2023/10/01 09:33:23;;;;;;;8.40;2.00;;;;;;;;;;104592;1286;553691;-77
2023/10/01 09:36:31;;;;;;;7.50;2.10;;;;;;;;;;103784;1291;544843;-76
2023/10/01 09:39:50;;;;;;;7.80;2.50;;;;;;;;;;103979;1292;546147;-80
2023/10/01 09:43:30;;;;;;;7.70;2.00;;;;;;;;;;103601;1296;544828;-77
2023/10/01 09:57:37;;;;;;;8.80;2.20;;;;;;;;;;104923;1286;553678;-79
2023/10/01 10:10:56;;;;;;;7.30;2.20;;;;;;;;;;104355;1285;553666;-75
2023/10/01 10:13:57;;;;;;;7.50;2.20;;;;;;;;;;104232;1283;548440;-75
2023/10/01 10:17:38;;;;;;;7.20;2.00;;;;;;;;;;103985;1296;545222;-80
2023/10/01 10:21:03;;;;;;;7.80;2.30;;;;;;;;;;103887;1292;545021;-81
2023/10/01 10:24:47;;;;;;;9.00;2.50;;;;;;;;;;103649;1297;547774;-77
2023/10/01 10:28:44;;;;;;;7.10;2.00;;;;;;;;;;104136;1298;548145;-81
2023/10/01 10:32:09;;;;;;;7.70;2.00;;;;;;;;;;103861;1289;544916;-76
2023/10/01 10:35:46;;;;;;;9.40;2.10;;;;;;;;;;103612;1292;548181;-79
2023/10/01 10:39:15;;;;;;;6.30;2.10;;;;;;;;;;103986;1301;545155;-76
2023/10/01 10:42:57;;;;;;;6.50;2.00;;;;;;;;;;104103;1288;548028;-76
2023/10/01 10:47:01;;;;;;;6.20;1.90;;;;;;;;;;103705;1292;548099;-76
2023/10/01 10:50:11;;;;;;;6.30;1.60;;;;;;;;;;103840;1292;544790;-76
2023/10/01 10:53:46;;;;;;;6.80;2.00;;;;;;;;;;103598;1292;547928;-76
2023/10/01 10:57:27;;;;;;;9.40;3.10;;;;;;;;;;104324;1285;544843;-77
2023/10/01 11:01:18;;;;;;;7.20;2.10;;;;;;;;;;103820;1306;545975;-81
2023/10/01 11:04:42;;;;;;;6.60;2.10;;;;;;;;;;103623;1291;549725;-76
2023/10/01 11:08:26;;;;;;;6.60;2.00;;;;;;;;;;103634;1292;547973;-77
2023/10/01 11:11:56;;;;;;;11.40;3.00;;;;;;;;;;103552;1292;547987;-77
2023/10/01 11:15:39;;;;;;;10.60;2.70;;;;;;;;;;103565;1292;548085;-78
2023/10/01 11:19:12;;;;;;;6.20;2.10;;;;;;;;;;104071;1293;544813;-76
2023/10/01 11:22:46;;;;;;;7.90;2.00;;;;;;;;;;103829;1289;544849;-80
2023/10/01 11:26:26;;;;;;;7.00;2.00;;;;;;;;;;103766;1289;548131;-75
2023/10/01 11:30:12;;;;;;;7.50;2.20;;;;;;;;;;103719;1291;545765;-81
2023/10/01 11:33:32;;;;;;;8.10;1.90;;;;;;;;;;103928;1289;544740;-78
2023/10/01 11:37:17;;;;;;;8.30;2.90;;;;;;;;;;103714;1294;545490;-76
2023/10/01 11:41:09;;;;;;;8.60;2.60;;;;;;;;;;103806;1294;545295;-76
2023/10/01 11:44:34;;;;;;;10.60;2.60;;;;;;;;;;103928;1289;545631;-82
2023/10/01 11:48:32;;;;;;;9.50;2.20;;;;;;;;;;103641;1292;547829;-76
2023/10/01 11:52:26;;;;;;;6.80;1.90;;;;;;;;;;103719;1294;547971;-76
2023/10/01 11:55:38;;;;;;;6.80;2.20;;;;;;;;;;103288;1300;545518;-76
2023/10/01 11:59:18;;;;;;;6.70;2.00;;;;;;;;;;104182;1285;547966;-79
2023/10/01 12:02:47;;;;;;;7.80;2.00;;;;;;;;;;103802;1289;545036;-76
2023/10/01 12:16:48;;;;;;;7.40;2.20;;;;;;;;;;104492;1286;550518;-79
2023/10/01 12:20:21;;;;;;;8.10;2.20;;;;;;;;;;103587;1295;547928;-76
2023/10/01 12:23:15;;;;;;;8.10;2.20;;;;;;;;;;103925;1292;545006;-78
2023/10/01 12:27:07;;;;;;;8.60;2.10;;;;;;;;;;103648;1302;548415;-76
2023/10/01 12:30:32;;;;;;;6.50;1.70;;;;;;;;;;103899;1295;544858;-80
2023/10/01 12:34:25;;;;;;;6.90;2.00;;;;;;;;;;103483;1294;545649;-81
2023/10/01 12:38:05;;;;;;;8.00;2.20;;;;;;;;;;103692;1295;545074;-77
2023/10/01 12:41:47;;;;;;;8.20;2.00;;;;;;;;;;103928;1292;547843;-77
2023/10/01 12:45:13;;;;;;;6.80;2.30;;;;;;;;;;103724;1292;544982;-79
2023/10/01 12:59:36;;;;;;;6.80;2.10;;;;;;;;;;104431;1285;553564;-76
2023/10/01 13:06:05;;;;;;;7.10;2.70;;;;;;;;;;103776;1290;544970;-75
2023/10/01 13:13:12;;;;;;;7.00;2.10;;;;;;;;;;103785;1292;545502;-77
2023/10/01 13:17:00;;;;;;;6.70;2.00;;;;;;;;;;103415;1294;548377;-77
2023/10/01 13:20:41;;;;;;;7.70;2.20;;;;;;;;;;103745;1289;547963;-77
2023/10/01 13:24:10;;;;;;;6.90;2.00;;;;;;;;;;104082;1288;544918;-81
2023/10/01 13:27:50;;;;;;;5.70;2.00;;;;;;;;;;103655;1295;549131;-78
2023/10/01 13:35:32;;;;;;;8.50;2.50;;;;;;;;;;103844;1295;548034;-75
2023/10/01 13:38:52;;;;;;;8.90;2.60;;;;;;;;;;103764;1290;544996;-75
2023/10/01 14:21:42;;;;;;;5.90;1.90;;;;;;;;;;104388;1286;553568;-78
2023/10/01 14:24:42;;;;;;;7.40;2.40;;;;;;;;;;104293;1282;545684;-80
2023/10/01 14:28:19;;;;;;;7.00;1.90;;;;;;;;;;103278;1308;547950;-77
2023/10/01 14:42:18;;;;;;;7.90;2.30;;;;;;;;;;104433;1285;550788;-83
2023/10/01 14:45:10;;;;;;;7.60;2.10;;;;;;;;;;103613;1291;548022;-76
2023/10/01 14:48:45;;;;;;;7.70;2.60;;;;;;;;;;103667;1290;545561;-77
2023/10/01 14:52:22;;;;;;;8.20;2.50;;;;;;;;;;103576;1291;544864;-76
2023/10/01 14:55:56;;;;;;;6.80;2.30;;;;;;;;;;103779;1293;545648;-76
2023/10/01 14:59:39;;;;;;;7.20;2.30;;;;;;;;;;103900;1285;547898;-76
2023/10/01 15:03:36;;;;;;;6.60;2.00;;;;;;;;;;104002;1288;545143;-76
2023/10/01 15:07:17;;;;;;;6.00;2.10;;;;;;;;;;103616;1292;548188;-83
2023/10/01 15:10:26;;;;;;;8.50;2.30;;;;;;;;;;103733;1294;544714;-76
2023/10/01 15:14:11;;;;;;;6.00;2.10;;;;;;;;;;103696;1289;546006;-76
2023/10/01 15:17:54;;;;;;;7.00;1.90;;;;;;;;;;103838;1289;545080;-76
2023/10/01 15:21:23;;;;;;;6.00;2.00;;;;;;;;;;103742;1295;544890;-77
2023/10/01 15:25:01;;;;;;;6.60;2.30;;;;;;;;;;103820;1289;547971;-79
2023/10/01 15:28:50;;;;;;;6.90;2.20;;;;;;;;;;104040;1285;547735;-76
2023/10/01 15:32:16;;;;;;;7.70;2.40;;;;;;;;;;103825;1292;545970;-75
2023/10/01 15:35:51;;;;;;;6.00;1.90;;;;;;;;;;103815;1289;545402;-76
2023/10/01 15:43:08;;;;;;;7.00;2.10;;;;;;;;;;103590;1292;547878;-76
2023/10/01 15:46:40;;;;;;;6.10;2.20;;;;;;;;;;104138;1286;545442;-77
2023/10/01 15:50:37;;;;;;;6.10;2.10;;;;;;;;;;103578;1292;545431;-77
2023/10/01 15:53:55;;;;;;;6.70;2.10;;;;;;;;;;103994;1290;546131;-77
2023/10/01 15:57:33;;;;;;;7.30;2.00;;;;;;;;;;103945;1292;544947;-76
2023/10/01 16:01:23;;;;;;;8.10;2.20;;;;;;;;;;103596;1291;548013;-77
2023/10/01 16:04:59;;;;;;;6.80;2.30;;;;;;;;;;103504;1298;544979;-83
2023/10/01 16:08:26;;;;;;;6.70;2.30;;;;;;;;;;103716;1294;545727;-77
2023/10/01 16:22:30;;;;;;;6.10;2.10;;;;;;;;;;104415;1282;549667;-76
2023/10/01 16:25:19;;;;;;;6.70;2.50;;;;;;;;;;103681;1289;545405;-76
2023/10/01 16:29:06;;;;;;;6.90;2.40;;;;;;;;;;103447;1293;548185;-80
2023/10/01 16:32:47;;;;;;;8.60;2.50;;;;;;;;;;103641;1291;547908;-76
2023/10/01 16:36:21;;;;;;;8.00;2.70;;;;;;;;;;103788;1289;545062;-76
2023/10/01 16:39:51;;;;;;;8.80;2.50;;;;;;;;;;103664;1292;549066;-76
2023/10/01 16:43:39;;;;;;;7.40;2.60;;;;;;;;;;103603;1291;548127;-76
2023/10/01 16:47:04;;;;;;;6.10;2.20;;;;;;;;;;103468;1294;545230;-76
2023/10/01 16:54:48;;;;;;;7.90;3.00;;;;;;;;;;103721;1294;547955;-76
2023/10/01 17:08:43;;;;;;;7.70;3.40;;;;;;;;;;104608;1285;549741;-76
2023/10/01 17:11:36;;;;;;;8.50;3.70;;;;;;;;;;103938;1290;544807;-77
2023/10/01 17:15:41;;;;;;;7.70;3.10;;;;;;;;;;103577;1291;548616;-77
2023/10/01 17:19:01;;;;;;;9.50;3.60;;;;;;;;;;103664;1291;545536;-79
2023/10/01 17:22:29;;;;;;;8.00;3.40;;;;;;;;;;103985;1292;544760;-76
2023/10/01 17:26:14;;;;;;;8.10;3.30;;;;;;;;;;103780;1289;547951;-75
2023/10/01 17:29:50;;;;;;;9.40;3.30;;;;;;;;;;103291;1300;548079;-76
2023/10/01 17:33:30;;;;;;;7.70;2.90;;;;;;;;;;103500;1291;547911;-77
2023/10/01 17:37:03;;;;;;;10.50;3.50;;;;;;;;;;103790;1289;545819;-77
2023/10/01 17:40:48;;;;;;;9.40;3.70;;;;;;;;;;103280;1298;548256;-76
2023/10/01 17:44:24;;;;;;;9.00;3.20;;;;;;;;;;103656;1290;548227;-76
2023/10/01 17:47:51;;;;;;;8.30;2.80;;;;;;;;;;104468;1288;544938;-76
2023/10/01 17:51:30;;;;;;;9.50;2.60;;;;;;;;;;104076;1289;544800;-79
2023/10/01 17:55:31;;;;;;;7.70;2.90;;;;;;;;;;103609;1295;548019;-81
2023/10/01 17:58:43;;;;;;;8.00;2.80;;;;;;;;;;103739;1290;545133;-76
2023/10/01 18:02:28;;;;;;;8.20;2.70;;;;;;;;;;103251;1308;547814;-76
2023/10/01 18:06:06;;;;;;;7.60;2.70;;;;;;;;;;103582;1291;548011;-79
2023/10/01 18:09:45;;;;;;;7.80;2.90;;;;;;;;;;103558;1291;547909;-76
2023/10/01 18:13:14;;;;;;;8.00;2.90;;;;;;;;;;103746;1292;546005;-77
2023/10/01 18:16:50;;;;;;;7.40;2.70;;;;;;;;;;103726;1291;545013;-76
2023/10/01 18:20:32;;;;;;;7.80;2.80;;;;;;;;;;103727;1292;544776;-76
2023/10/01 18:24:10;;;;;;;8.90;3.40;;;;;;;;;;103593;1292;548480;-76
2023/10/01 18:27:54;;;;;;;7.10;2.70;;;;;;;;;;103312;1294;547982;-76
2023/10/01 18:31:20;;;;;;;8.10;3.00;;;;;;;;;;103745;1289;545505;-76
2023/10/01 18:35:12;;;;;;;8.80;3.30;;;;;;;;;;103547;1292;548159;-76
2023/10/01 18:38:40;;;;;;;7.70;2.90;;;;;;;;;;103607;1292;548074;-76
2023/10/01 18:42:18;;;;;;;8.30;3.00;;;;;;;;;;103582;1291;547806;-76
2023/10/01 18:45:59;;;;;;;9.40;3.00;;;;;;;;;;103637;1291;545096;-76
2023/10/01 18:49:28;;;;;;;9.80;3.50;;;;;;;;;;103783;1292;545713;-76
2023/10/01 18:53:30;;;;;;;8.30;3.20;;;;;;;;;;103633;1294;547874;-80
2023/10/01 18:57:03;;;;;;;12.00;3.20;;;;;;;;;;103626;1290;548003;-77
2023/10/01 19:00:23;;;;;;;8.90;3.40;;;;;;;;;;103780;1289;545308;-79
2023/10/01 19:04:09;;;;;;;10.00;3.90;;;;;;;;;;103454;1292;545597;-76
2023/10/01 19:07:35;;;;;;;9.90;4.20;;;;;;;;;;103707;1290;545038;-80
2023/10/01 19:11:18;;;;;;;10.90;4.70;;;;;;;;;;103574;1291;548054;-76
2023/10/01 19:14:51;;;;;;;9.40;4.40;;;;;;;;;;103600;1294;545840;-76
2023/10/01 19:18:27;;;;;;;9.80;4.60;;;;;;;;;;103727;1292;545872;-75
2023/10/01 19:22:13;;;;;;;14.00;4.40;;;;;;;;;;103344;1298;546099;-76
2023/10/01 19:25:39;;;;;;;10.40;3.80;;;;;;;;;;103834;1292;544992;-76
2023/10/01 19:29:24;;;;;;;12.20;4.60;;;;;;;;;;103773;1292;544881;-80
2023/10/01 19:33:05;;;;;;;10.80;4.20;;;;;;;;;;103517;1292;548191;-76
2023/10/01 19:36:45;;;;;;;12.20;4.00;;;;;;;;;;103646;1295;547962;-76
2023/10/01 19:40:21;;;;;;;11.90;4.20;;;;;;;;;;103982;1288;547781;-75
2023/10/01 19:54:17;;;;;;;11.60;4.10;;;;;;;;;;104439;1286;549828;-83
2023/10/01 19:57:17;;;;;;;10.30;4.00;;;;;;;;;;103941;1286;544931;-75
2023/10/01 20:00:54;;;;;;;10.10;3.80;;;;;;;;;;103911;1289;547794;-76
2023/10/01 20:04:25;;;;;;;11.20;3.90;;;;;;;;;;104258;1285;544965;-76
2023/10/01 20:08:03;;;;;;;11.60;4.00;;;;;;;;;;103693;1289;544856;-76
2023/10/01 20:11:40;;;;;;;9.30;4.10;;;;;;;;;;103749;1290;544791;-75
2023/10/01 20:15:24;;;;;;;10.80;4.20;;;;;;;;;;103627;1292;547843;-81
2023/10/01 20:18:55;;;;;;;9.60;4.20;;;;;;;;;;103785;1292;545918;-80
2023/10/01 20:22:32;;;;;;;11.60;4.20;;;;;;;;;;103718;1291;544969;-78
2023/10/01 20:26:19;;;;;;;10.70;4.10;;;;;;;;;;103632;1294;547791;-76
2023/10/01 20:29:48;;;;;;;10.40;4.20;;;;;;;;;;103742;1290;544957;-77
2023/10/01 20:33:25;;;;;;;10.60;4.00;;;;;;;;;;103533;1294;544769;-77
2023/10/01 20:37:18;;;;;;;10.50;3.80;;;;;;;;;;103573;1292;547823;-76
2023/10/01 20:40:50;;;;;;;10.90;3.90;;;;;;;;;;103523;1293;547813;-75
2023/10/01 20:44:24;;;;;;;11.40;4.20;;;;;;;;;;104036;1285;548105;-75
2023/10/01 20:48:00;;;;;;;9.30;3.90;;;;;;;;;;103608;1303;548878;-76
2023/10/01 20:51:41;;;;;;;9.10;3.80;;;;;;;;;;103561;1295;547905;-76
2023/10/01 20:55:17;;;;;;;8.50;3.40;;;;;;;;;;103714;1290;545062;-76
2023/10/01 20:58:53;;;;;;;8.40;3.80;;;;;;;;;;103595;1294;548277;-77
2023/10/01 21:02:25;;;;;;;8.80;3.90;;;;;;;;;;103745;1292;546054;-76
2023/10/01 21:06:04;;;;;;;8.40;3.80;;;;;;;;;;103687;1288;546202;-77
2023/10/01 21:09:40;;;;;;;8.10;3.40;;;;;;;;;;103722;1291;545585;-76
2023/10/01 21:13:26;;;;;;;8.90;3.60;;;;;;;;;;103991;1289;544965;-76
2023/10/01 21:17:12;;;;;;;8.80;3.60;;;;;;;;;;103230;1294;548425;-76
2023/10/01 21:20:34;;;;;;;8.10;3.60;;;;;;;;;;103723;1292;545460;-76
2023/10/01 21:24:09;;;;;;;10.30;4.40;;;;;;;;;;104106;1288;545498;-81
2023/10/01 21:27:59;;;;;;;10.40;4.50;;;;;;;;;;103581;1295;548108;-77
2023/10/01 21:31:30;;;;;;;8.80;3.80;;;;;;;;;;103535;1295;548140;-76
2023/10/01 21:35:07;;;;;;;9.40;3.80;;;;;;;;;;103570;1292;548008;-76
2023/10/01 21:38:44;;;;;;;8.70;4.10;;;;;;;;;;103561;1296;547987;-76
2023/10/01 21:42:31;;;;;;;8.50;3.90;;;;;;;;;;103608;1292;545093;-77
2023/10/01 21:46:02;;;;;;;9.80;4.00;;;;;;;;;;104070;1287;544922;-76
2023/10/01 21:49:31;;;;;;;10.30;4.10;;;;;;;;;;103713;1294;545515;-76
2023/10/01 21:53:23;;;;;;;9.60;4.00;;;;;;;;;;103824;1295;544748;-75
2023/10/01 21:56:53;;;;;;;9.00;3.90;;;;;;;;;;103451;1292;548125;-75
2023/10/01 22:00:40;;;;;;;9.20;4.00;;;;;;;;;;103695;1294;548514;-82
2023/10/01 22:04:24;;;;;;;10.90;4.20;;;;;;;;;;103902;1291;548085;-80
2023/10/01 22:07:42;;;;;;;8.60;3.80;;;;;;;;;;103696;1292;545205;-76
2023/10/01 22:11:25;;;;;;;9.30;3.50;;;;;;;;;;103583;1292;548149;-76
2023/10/01 22:14:54;;;;;;;9.30;3.50;;;;;;;;;;104022;1292;544955;-76
2023/10/01 22:18:31;;;;;;;9.40;3.70;;;;;;;;;;103805;1292;545509;-79
2023/10/01 22:22:14;;;;;;;9.40;3.80;;;;;;;;;;103628;1292;547776;-75
2023/10/01 22:25:51;;;;;;;8.80;3.90;;;;;;;;;;103559;1295;548110;-77
2023/10/01 22:29:29;;;;;;;9.10;3.60;;;;;;;;;;103588;1289;548024;-76
2023/10/01 22:33:08;;;;;;;8.00;3.60;;;;;;;;;;103585;1292;548328;-77
2023/10/01 22:36:46;;;;;;;8.90;3.60;;;;;;;;;;103697;1290;544996;-76
2023/10/01 22:40:21;;;;;;;9.00;3.30;;;;;;;;;;103322;1294;548518;-78
2023/10/01 22:44:10;;;;;;;8.30;3.80;;;;;;;;;;103705;1295;544615;-79
2023/10/01 22:47:40;;;;;;;8.90;3.70;;;;;;;;;;103644;1289;545225;-76
2023/10/01 22:51:23;;;;;;;10.10;3.80;;;;;;;;;;103623;1290;547975;-76
2023/10/01 22:54:51;;;;;;;8.60;3.70;;;;;;;;;;103598;1292;547946;-76
2023/10/01 22:58:26;;;;;;;8.30;3.20;;;;;;;;;;103710;1292;544955;-76
2023/10/01 23:02:05;;;;;;;8.70;3.40;;;;;;;;;;103686;1292;545402;-76
2023/10/01 23:05:43;;;;;;;8.90;4.00;;;;;;;;;;103620;1289;548077;-78
2023/10/01 23:09:21;;;;;;;8.00;3.50;;;;;;;;;;103623;1292;548457;-76
2023/10/01 23:13:10;;;;;;;9.70;4.20;;;;;;;;;;103747;1289;545763;-79
2023/10/01 23:16:39;;;;;;;11.00;4.50;;;;;;;;;;103585;1292;548155;-80
2023/10/01 23:20:12;;;;;;;9.20;4.10;;;;;;;;;;103842;1288;544771;-76
2023/10/01 23:23:45;;;;;;;10.70;3.80;;;;;;;;;;104261;1289;546029;-76
2023/10/01 23:31:15;;;;;;;7.90;4.00;;;;;;;;;;103479;1294;547802;-75
2023/10/01 23:34:43;;;;;;;8.50;3.90;;;;;;;;;;103730;1292;544930;-76
2023/10/01 23:38:28;;;;;;;10.20;4.50;;;;;;;;;;103824;1295;544947;-76
2023/10/01 23:41:52;;;;;;;9.90;4.30;;;;;;;;;;103731;1292;544923;-76
2023/10/01 23:45:56;;;;;;;8.90;3.90;;;;;;;;;;103813;1292;545975;-76
2023/10/01 23:49:11;;;;;;;8.80;4.10;;;;;;;;;;103713;1294;544945;-76
2023/10/01 23:52:48;;;;;;;10.70;5.00;;;;;;;;;;103729;1289;545288;-76
2023/10/01 23:56:26;;;;;;;8.90;4.30;;;;;;;;;;103745;1292;545068;-76
